createdAt,value
2022-09-30T00:00:26.575Z,8.32
2022-09-30T00:05:28.211Z,6.90
2022-09-30T00:10:29.681Z,6.40
2022-09-30T00:15:31.128Z,7.32
2022-09-30T00:20:34.861Z,5.75
2022-09-30T00:25:36.351Z,5.70
2022-09-30T00:30:37.817Z,5.88
2022-09-30T00:35:39.539Z,5.10
2022-09-30T00:40:41.508Z,5.72
2022-09-30T00:45:51.148Z,5.32
2022-09-30T00:50:55.585Z,7.88
2022-09-30T00:56:09.566Z,6.88
2022-09-30T01:01:11.421Z,6.50
2022-09-30T01:06:13.203Z,8.93
2022-09-30T01:11:15.430Z,6.88
2022-09-30T01:16:34.843Z,5.50
2022-09-30T01:22:04.866Z,6.50
2022-09-30T01:27:12.326Z,8.68
2022-09-30T01:32:45.997Z,8.63
2022-09-30T01:38:09.232Z,8.02
2022-09-30T01:43:13.293Z,9.38
2022-09-30T01:48:22.095Z,7.32
2022-09-30T01:53:47.189Z,8.55
2022-09-30T01:58:59.122Z,7.90
2022-09-30T02:04:07.237Z,6.57
2022-09-30T02:09:14.468Z,7.00
2022-09-30T02:14:30.796Z,8.88
2022-09-30T02:19:42.473Z,6.38
2022-09-30T02:24:47.362Z,6.47
2022-09-30T02:29:54.784Z,6.68
2022-09-30T02:35:23.558Z,6.47
2022-09-30T02:40:28.621Z,7.07
2022-09-30T02:45:36.842Z,6.63
2022-09-30T02:50:49.202Z,10.10
2022-09-30T02:56:02.723Z,5.95
2022-09-30T03:01:04.305Z,6.85
2022-09-30T03:06:06.024Z,6.38
2022-09-30T03:11:12.073Z,6.68
2022-09-30T03:16:22.628Z,8.38
2022-09-30T03:21:50.810Z,6.57
2022-09-30T03:27:19.491Z,7.45
2022-09-30T03:32:48.863Z,6.93
2022-09-30T03:38:13.775Z,9.82
2022-09-30T03:43:25.000Z,11.48
2022-09-30T03:48:29.167Z,10.52
2022-09-30T03:53:30.867Z,8.20
2022-09-30T03:58:32.795Z,11.68
2022-09-30T04:03:35.497Z,6.75
2022-09-30T04:08:36.965Z,11.07
2022-09-30T04:13:38.928Z,8.73
2022-09-30T04:18:40.524Z,10.52
2022-09-30T04:23:43.117Z,8.25
2022-09-30T04:28:44.592Z,7.68
2022-09-30T04:33:46.098Z,7.60
2022-09-30T04:38:47.602Z,8.98
2022-09-30T04:43:49.266Z,9.98
2022-09-30T04:48:50.746Z,9.90
2022-09-30T04:53:52.217Z,8.35
2022-09-30T04:58:54.513Z,8.55
2022-09-30T05:03:56.005Z,10.75
2022-09-30T05:08:57.581Z,9.75
2022-09-30T05:13:59.186Z,13.32
2022-09-30T05:19:00.646Z,11.60
2022-09-30T05:24:03.155Z,9.48
2022-09-30T05:29:04.619Z,10.63
2022-09-30T05:34:06.083Z,10.25
2022-09-30T05:39:07.548Z,11.07
2022-09-30T05:44:09.456Z,11.77
2022-09-30T05:49:10.994Z,11.57
2022-09-30T05:54:12.523Z,14.55
2022-09-30T05:59:13.998Z,10.52
2022-09-30T06:04:15.517Z,11.93
2022-09-30T06:09:17.349Z,14.35
2022-09-30T06:14:20.286Z,13.98
2022-09-30T06:19:21.774Z,12.13
2022-09-30T06:24:23.581Z,15.90
2022-09-30T06:29:25.087Z,16.23
2022-09-30T06:34:26.745Z,12.63
2022-09-30T06:39:28.236Z,9.60
2022-09-30T06:44:29.713Z,12.57
2022-09-30T06:49:45.512Z,13.02
2022-09-30T06:54:51.245Z,11.77
2022-09-30T06:59:52.721Z,10.20
2022-09-30T07:04:54.244Z,12.85
2022-09-30T07:09:59.584Z,8.70
2022-09-30T07:15:01.616Z,10.50
2022-09-30T07:20:03.349Z,15.75
2022-09-30T07:25:05.199Z,16.83
2022-09-30T07:30:11.937Z,11.70
2022-09-30T07:35:15.950Z,16.50
2022-09-30T07:40:17.560Z,14.77
2022-09-30T07:45:19.450Z,14.98
2022-09-30T07:50:21.190Z,13.15
2022-09-30T07:55:22.665Z,15.57
2022-09-30T08:00:41.723Z,10.68
2022-09-30T08:05:45.264Z,11.13
2022-09-30T08:10:46.856Z,8.95
2022-09-30T08:15:48.729Z,11.70
2022-09-30T08:20:50.401Z,9.10
2022-09-30T08:25:51.857Z,9.95
2022-09-30T08:30:53.328Z,9.65
2022-09-30T08:35:54.855Z,8.50
2022-09-30T08:41:14.921Z,7.18
2022-09-30T08:46:32.686Z,6.82
2022-09-30T08:51:38.370Z,8.05
2022-09-30T08:56:39.901Z,6.20
2022-09-30T09:01:47.095Z,9.27
2022-09-30T09:07:07.050Z,5.70
2022-09-30T09:12:11.328Z,6.30
2022-09-30T09:17:23.719Z,3.85
2022-09-30T09:22:28.058Z,5.22
2022-09-30T09:27:54.278Z,3.17
2022-09-30T09:33:15.535Z,2.25
2022-09-30T09:38:55.276Z,3.15
2022-09-30T09:44:24.151Z,2.22
2022-09-30T09:49:31.564Z,2.72
2022-09-30T09:54:37.578Z,4.07
2022-09-30T09:59:54.959Z,5.57
2022-09-30T10:05:03.942Z,6.78
2022-09-30T10:10:19.653Z,3.33
2022-09-30T10:15:26.398Z,3.67
2022-09-30T10:20:36.721Z,3.85
2022-09-30T10:25:38.278Z,9.35
2022-09-30T10:30:45.842Z,6.22
2022-09-30T10:35:56.681Z,5.47
2022-09-30T10:40:58.930Z,5.53
2022-09-30T10:46:24.668Z,4.82
2022-09-30T10:51:29.698Z,9.38
2022-09-30T10:56:44.150Z,5.55
2022-09-30T11:01:57.637Z,8.50
2022-09-30T11:07:22.759Z,6.63
2022-09-30T11:12:47.251Z,9.88
2022-09-30T11:17:48.650Z,8.00
2022-09-30T11:22:56.610Z,11.93
2022-09-30T11:28:07.026Z,8.45
2022-09-30T11:33:34.633Z,10.43
2022-09-30T11:38:50.569Z,9.18
2022-09-30T11:44:19.959Z,8.80
2022-09-30T11:49:27.291Z,8.48
2022-09-30T11:59:53.861Z,4.55
2022-09-30T12:05:02.360Z,4.45
2022-09-30T12:10:16.577Z,2.85
2022-09-30T12:15:21.476Z,1.75
2022-09-30T12:20:26.467Z,3.03
2022-09-30T12:25:43.938Z,2.80
2022-09-30T12:30:46.738Z,3.65
2022-09-30T12:36:06.496Z,0.88
2022-09-30T12:41:25.061Z,2.88
2022-09-30T12:46:35.417Z,3.05
2022-09-30T12:51:43.201Z,1.13
2022-09-30T12:56:49.595Z,2.05
2022-09-30T13:01:51.234Z,3.63
2022-09-30T13:06:52.659Z,1.73
2022-09-30T13:11:54.072Z,2.25
2022-09-30T13:17:06.562Z,3.03
2022-09-30T13:22:32.315Z,2.20
2022-09-30T13:27:35.039Z,2.47
2022-09-30T13:32:37.793Z,2.08
2022-09-30T13:37:40.185Z,3.92
2022-09-30T13:42:50.429Z,3.03
2022-09-30T13:48:13.593Z,3.88
2022-09-30T13:53:22.079Z,3.10
2022-09-30T13:58:35.743Z,2.13
2022-09-30T14:03:58.545Z,2.40
2022-09-30T14:09:16.427Z,3.90
2022-09-30T14:14:39.067Z,4.07
2022-09-30T14:20:19.948Z,7.55
2022-09-30T14:25:21.650Z,5.80
2022-09-30T14:30:27.337Z,5.20
2022-09-30T14:35:31.574Z,6.05
2022-09-30T14:40:36.315Z,2.95
2022-09-30T14:45:42.216Z,2.45
2022-09-30T14:50:52.710Z,5.15
2022-09-30T14:55:54.249Z,4.38
2022-09-30T15:01:02.699Z,5.65
2022-09-30T15:06:10.576Z,5.45
2022-09-30T15:11:19.353Z,5.88
2022-09-30T15:16:32.035Z,4.30
2022-09-30T15:21:34.898Z,4.15
2022-09-30T15:26:36.986Z,4.40
2022-09-30T15:31:46.659Z,4.80
2022-09-30T15:36:56.589Z,6.57
2022-09-30T15:41:58.246Z,8.77
2022-09-30T15:47:10.056Z,5.35
2022-09-30T15:52:30.613Z,3.85
2022-09-30T15:57:47.325Z,5.43
2022-09-30T16:02:48.845Z,2.97
2022-09-30T16:07:50.343Z,2.75
2022-09-30T16:17:58.269Z,3.85
2022-09-30T16:23:02.429Z,5.95
2022-09-30T16:28:15.060Z,3.15
2022-09-30T16:33:17.296Z,7.10
2022-09-30T16:38:19.932Z,4.25
2022-09-30T16:43:22.050Z,4.55
2022-09-30T16:48:26.066Z,4.90
2022-09-30T16:53:27.740Z,6.05
2022-09-30T16:58:31.099Z,7.13
2022-09-30T17:03:32.843Z,8.30
2022-09-30T17:08:34.330Z,7.65
2022-09-30T17:13:35.785Z,9.48
2022-09-30T17:18:37.413Z,8.40
2022-09-30T17:23:39.269Z,9.23
2022-09-30T17:28:40.853Z,9.18
2022-09-30T17:33:42.622Z,8.73
2022-09-30T17:38:44.121Z,8.63
2022-09-30T17:43:45.852Z,7.00
2022-09-30T17:48:47.735Z,8.82
2022-09-30T17:53:49.318Z,6.90
2022-09-30T17:58:51.014Z,7.13
2022-09-30T18:03:53.487Z,7.07
2022-09-30T18:08:55.632Z,7.85
2022-09-30T18:13:59.424Z,9.00
2022-09-30T18:19:03.934Z,10.82
2022-09-30T18:24:06.679Z,8.50
2022-09-30T18:29:08.209Z,9.48
2022-09-30T18:34:13.108Z,19.77
2022-09-30T18:39:14.769Z,10.63
2022-09-30T18:44:16.235Z,10.35
2022-09-30T18:49:17.697Z,15.93
2022-09-30T18:54:19.150Z,10.63
2022-09-30T18:59:23.360Z,11.40
2022-09-30T19:04:25.994Z,15.95
2022-09-30T19:09:28.274Z,17.45
2022-09-30T19:14:30.682Z,19.80
2022-09-30T19:19:36.053Z,17.85
2022-09-30T19:24:41.960Z,9.38
2022-09-30T19:29:46.360Z,8.38
2022-09-30T19:34:57.361Z,9.85
2022-09-30T19:40:10.261Z,10.63
2022-09-30T19:45:16.292Z,9.18
2022-09-30T19:50:18.033Z,8.85
2022-09-30T19:55:19.505Z,8.77
2022-09-30T20:00:21.286Z,9.52
2022-09-30T20:05:23.607Z,12.63
2022-09-30T20:10:25.264Z,6.57
2022-09-30T20:15:46.359Z,6.53
2022-09-30T20:20:48.155Z,12.10
2022-09-30T20:25:51.463Z,5.80
2022-09-30T20:30:52.929Z,8.65
2022-09-30T20:35:54.549Z,8.40
2022-09-30T20:41:01.114Z,7.80
2022-09-30T20:46:05.152Z,6.40
2022-09-30T20:51:11.846Z,8.45
2022-09-30T20:56:15.122Z,3.63
2022-09-30T21:01:18.607Z,5.15
2022-09-30T21:06:28.297Z,5.35
2022-09-30T21:11:29.908Z,5.93
2022-09-30T21:16:31.818Z,7.72
2022-09-30T21:21:33.570Z,5.00
2022-09-30T21:26:35.593Z,10.45
2022-09-30T21:31:38.051Z,6.28
2022-09-30T21:36:40.255Z,6.32
2022-09-30T21:41:42.378Z,4.90
2022-09-30T21:46:48.513Z,5.20
2022-09-30T21:51:52.924Z,8.33
2022-09-30T21:56:54.438Z,5.82
2022-09-30T22:01:56.162Z,9.77
2022-09-30T22:06:57.722Z,5.20
2022-09-30T22:11:59.572Z,9.25
2022-09-30T22:17:01.027Z,8.25
2022-09-30T22:22:02.886Z,8.23
2022-09-30T22:27:08.967Z,12.10
2022-09-30T22:32:10.469Z,8.75
2022-09-30T22:37:30.480Z,7.93
2022-09-30T22:42:31.947Z,6.85
2022-09-30T22:47:33.736Z,10.57
2022-09-30T22:52:35.218Z,8.10
2022-09-30T22:57:36.747Z,7.05
2022-09-30T23:02:38.292Z,9.75
2022-09-30T23:07:40.694Z,6.78
2022-09-30T23:12:42.185Z,9.57
2022-09-30T23:17:43.625Z,7.68
2022-09-30T23:22:45.101Z,7.60
2022-09-30T23:27:49.401Z,8.60
2022-09-30T23:32:51.118Z,12.13
2022-09-30T23:37:52.840Z,9.20
2022-09-30T23:42:55.234Z,7.78
2022-09-30T23:47:59.082Z,9.57
2022-09-30T23:53:01.137Z,10.35
2022-09-30T23:58:02.675Z,9.35
